Time;durP1;ratioP1;P1;durP2;ratioP2;P2;SDS_P1;SDS_P2;PMS_P1;PMS_P2;Temp;Humidity;BMP_temperature;BMP_pressure;BME280_temperature;BME280_humidity;BME280_pressure;Samples;Min_cycle;Max_cycle;Signal;HPM_P1;HPM_P2
2023/01/05 00:01:47;;;;;;;5.80;5.50;;;11.30;46.70;;;;;;5093406;28;20434;-60
2023/01/05 00:04:13;;;;;;;6.23;6.03;;;11.30;46.70;;;;;;5093317;28;20431;-60
2023/01/05 00:06:39;;;;;;;6.30;6.00;;;11.30;46.80;;;;;;5093117;28;20376;-58
2023/01/05 00:09:06;;;;;;;5.57;5.37;;;11.30;46.80;;;;;;5093872;28;20408;-58
2023/01/05 00:22:46;;;;;;;5.53;5.23;;;11.30;47.00;;;;;;5111538;28;20776;-58
2023/01/05 00:25:16;;;;;;;5.10;5.00;;;11.30;46.90;;;;;;5111649;28;20795;-58
2023/01/05 00:27:44;;;;;;;5.47;5.37;;;11.30;47.00;;;;;;5093271;28;20843;-58
2023/01/05 00:30:12;;;;;;;5.30;5.20;;;11.30;47.00;;;;;;5093142;28;20418;-58
2023/01/05 00:32:37;;;;;;;5.00;4.90;;;11.30;46.90;;;;;;5092516;28;20452;-58
2023/01/05 00:35:03;;;;;;;5.17;4.97;;;11.30;46.80;;;;;;5093004;28;20408;-58
2023/01/05 00:37:31;;;;;;;4.87;4.77;;;11.30;46.80;;;;;;5093061;28;20437;-58
2023/01/05 00:39:57;;;;;;;4.90;4.80;;;11.30;46.90;;;;;;5092906;28;20396;-58
2023/01/05 00:42:23;;;;;;;5.60;5.50;;;11.30;47.10;;;;;;5092475;28;20979;-58
2023/01/05 00:44:49;;;;;;;5.73;5.53;;;11.30;47.30;;;;;;5092953;28;20190;-58
2023/01/05 00:47:14;;;;;;;5.43;5.33;;;11.30;47.30;;;;;;5092735;28;20423;-57
2023/01/05 00:49:40;;;;;;;5.63;5.40;;;11.40;47.50;;;;;;5092711;28;20174;-57
2023/01/05 00:52:07;;;;;;;6.00;5.80;;;11.40;47.50;;;;;;5093250;28;20233;-57
2023/01/05 00:54:33;;;;;;;5.40;5.30;;;11.30;47.70;;;;;;5092696;28;20423;-57
2023/01/05 00:56:59;;;;;;;5.10;5.00;;;11.30;47.70;;;;;;5093163;28;20404;-58
2023/01/05 00:59:24;;;;;;;5.23;5.13;;;11.40;47.80;;;;;;5092630;28;20423;-58
2023/01/05 01:01:52;;;;;;;5.13;5.03;;;11.30;47.90;;;;;;5092615;28;20976;-58
2023/01/05 01:04:18;;;;;;;5.00;4.90;;;11.30;48.00;;;;;;5092324;28;20567;-58
2023/01/05 01:06:44;;;;;;;5.13;5.03;;;11.40;47.90;;;;;;5092517;28;20438;-58
2023/01/05 01:09:10;;;;;;;5.03;4.93;;;11.40;48.10;;;;;;5092947;28;20408;-58
2023/01/05 01:11:37;;;;;;;5.20;5.10;;;11.40;48.00;;;;;;5092880;28;20784;-58
2023/01/05 01:14:04;;;;;;;5.50;5.40;;;11.40;48.10;;;;;;5092459;28;20169;-58
2023/01/05 01:16:30;;;;;;;5.30;5.20;;;11.40;47.90;;;;;;5092567;28;20829;-58
2023/01/05 01:18:56;;;;;;;5.97;5.77;;;11.40;48.10;;;;;;5091994;28;20846;-58
2023/01/05 01:21:22;;;;;;;5.50;5.40;;;11.40;48.10;;;;;;5092386;28;20416;-58
2023/01/05 01:23:47;;;;;;;5.47;5.37;;;11.40;48.20;;;;;;5092021;28;20961;-58
2023/01/05 01:26:13;;;;;;;5.80;5.70;;;11.40;48.20;;;;;;5092827;28;20204;-58
2023/01/05 01:28:39;;;;;;;6.10;5.90;;;11.40;48.10;;;;;;5092165;28;20174;-58
2023/01/05 01:31:05;;;;;;;6.27;6.07;;;11.50;47.90;;;;;;5091647;28;20962;-58
2023/01/05 01:33:32;;;;;;;5.60;5.50;;;11.50;48.00;;;;;;5091945;28;20737;-58
2023/01/05 01:35:58;;;;;;;5.93;5.83;;;11.50;47.90;;;;;;5091246;28;20548;-58
2023/01/05 01:38:24;;;;;;;6.07;5.90;;;11.50;47.90;;;;;;5091537;28;20408;-58
2023/01/05 01:40:50;;;;;;;5.87;5.77;;;11.50;48.10;;;;;;5091596;28;20419;-58
2023/01/05 01:43:43;;;;;;;5.63;5.53;;;11.40;48.20;;;;;;5091655;28;20504;-59
2023/01/05 01:46:09;;;;;;;5.90;5.80;;;11.40;48.20;;;;;;5091997;28;20414;-59
2023/01/05 01:48:38;;;;;;;6.17;6.07;;;11.50;48.30;;;;;;5091193;28;20399;-59
2023/01/05 01:51:09;;;;;;;6.13;5.93;;;11.50;48.40;;;;;;5091702;28;20455;-59
2023/01/05 01:53:39;;;;;;;5.77;5.67;;;11.50;48.30;;;;;;5091515;28;20767;-59
2023/01/05 01:56:09;;;;;;;5.50;5.40;;;11.50;48.10;;;;;;5091062;28;20412;-59
2023/01/05 01:58:35;;;;;;;6.00;5.90;;;11.60;48.00;;;;;;5091435;28;20781;-59
2023/01/05 02:01:01;;;;;;;6.20;6.10;;;11.60;48.10;;;;;;5091155;28;20791;-59
2023/01/05 02:03:28;;;;;;;6.10;5.90;;;11.60;48.10;;;;;;5091211;28;20441;-59
2023/01/05 02:05:54;;;;;;;5.70;5.60;;;11.60;48.00;;;;;;5091508;28;20953;-59
2023/01/05 02:08:24;;;;;;;5.60;5.40;;;11.50;47.90;;;;;;5091519;28;20412;-59
2023/01/05 02:11:27;;;;;;;5.30;5.20;;;11.50;48.10;;;;;;5090556;28;20415;-59
2023/01/05 02:14:19;;;;;;;5.47;5.00;;;11.50;48.20;;;;;;5091405;28;20407;-59
2023/01/05 02:17:06;;;;;;;5.20;5.07;;;11.50;48.00;;;;;;5090936;28;20556;-59
2023/01/05 02:19:50;;;;;;;5.57;5.47;;;11.60;48.10;;;;;;5091190;28;20502;-58
2023/01/05 02:22:43;;;;;;;5.80;5.70;;;11.70;47.70;;;;;;5091205;28;20408;-58
2023/01/05 02:25:34;;;;;;;5.53;5.43;;;11.60;47.90;;;;;;5091040;28;20412;-59
2023/01/05 02:28:14;;;;;;;6.00;5.90;;;11.60;48.00;;;;;;5091642;28;20639;-58
2023/01/05 02:30:59;;;;;;;5.77;5.67;;;11.60;48.30;;;;;;5090367;28;20907;-58
2023/01/05 02:33:27;;;;;;;5.80;5.70;;;11.60;48.40;;;;;;5091524;28;20399;-59
2023/01/05 02:36:14;;;;;;;5.53;5.43;;;11.60;48.40;;;;;;5091005;28;20402;-59
2023/01/05 02:38:47;;;;;;;5.47;5.37;;;11.60;48.70;;;;;;5091048;28;20415;-58
2023/01/05 02:41:22;;;;;;;5.87;5.77;;;11.60;48.80;;;;;;5091215;28;20773;-58
2023/01/05 02:43:48;;;;;;;5.70;5.60;;;11.60;48.80;;;;;;5090978;28;20435;-58
2023/01/05 02:46:14;;;;;;;5.60;5.50;;;11.60;48.80;;;;;;5091731;28;20898;-58
2023/01/05 02:48:41;;;;;;;5.47;5.37;;;11.60;48.80;;;;;;5095346;28;20411;-58
2023/01/05 02:51:22;;;;;;;5.57;5.47;;;11.60;48.80;;;;;;5094487;28;20339;-59
2023/01/05 02:54:26;;;;;;;5.40;5.30;;;11.70;48.90;;;;;;5094643;28;20407;-59
2023/01/05 02:56:56;;;;;;;6.03;5.87;;;11.70;48.60;;;;;;4993666;28;20773;-59
2023/01/05 02:59:30;;;;;;;6.00;5.90;;;11.70;49.40;;;;;;5078899;28;20520;-59
2023/01/05 03:02:06;;;;;;;7.40;6.83;;;11.70;48.70;;;;;;5094159;28;20414;-59
2023/01/05 03:05:04;;;;;;;5.67;5.57;;;11.80;48.90;;;;;;5094351;28;20447;-59
2023/01/05 03:07:33;;;;;;;5.77;5.67;;;11.80;48.90;;;;;;5113015;28;20846;-59
2023/01/05 03:13:39;;;;;;;5.30;5.20;;;11.70;48.90;;;;;;5094096;28;20441;-59
2023/01/05 03:15:36;;;;;;;5.30;5.20;;;11.80;48.70;;;;;;5112694;28;20468;-59
2023/01/05 03:18:09;;;;;;;6.20;6.10;;;11.80;48.60;;;;;;5094369;28;20424;-59
2023/01/05 03:20:39;;;;;;;6.20;5.80;;;11.80;48.60;;;;;;5094705;28;20407;-59
2023/01/05 03:37:33;;;;;;;6.03;5.93;;;11.90;48.70;;;;;;5112254;28;20383;-58
2023/01/05 03:40:01;;;;;;;6.47;6.37;;;11.90;48.80;;;;;;5094015;28;20845;-58
2023/01/05 03:42:28;;;;;;;5.80;5.70;;;12.00;49.60;;;;;;5093783;28;20823;-59
2023/01/05 03:44:54;;;;;;;6.53;6.33;;;12.00;48.70;;;;;;5093554;28;20451;-58
2023/01/05 03:47:22;;;;;;;6.17;6.07;;;12.00;48.90;;;;;;5093844;28;20557;-58
2023/01/05 03:49:49;;;;;;;6.13;6.03;;;12.00;49.00;;;;;;5093911;28;20208;-58
2023/01/05 03:52:14;;;;;;;6.77;6.57;;;12.00;49.00;;;;;;5093457;28;20470;-58
2023/01/05 03:54:40;;;;;;;6.40;6.27;;;12.00;49.20;;;;;;5093361;28;20412;-58
2023/01/05 03:57:05;;;;;;;6.63;6.53;;;12.00;49.10;;;;;;5093063;28;20170;-58
2023/01/05 03:59:31;;;;;;;6.67;6.20;;;12.00;49.20;;;;;;5092919;28;20618;-58
2023/01/05 04:01:57;;;;;;;5.90;5.80;;;12.00;49.50;;;;;;5093597;28;20198;-58
2023/01/05 04:04:22;;;;;;;6.20;6.10;;;12.00;49.80;;;;;;5093632;28;20177;-58
2023/01/05 04:06:48;;;;;;;6.73;6.53;;;12.00;49.70;;;;;;5111424;28;20173;-58
2023/01/05 04:09:13;;;;;;;6.50;6.40;;;12.10;49.80;;;;;;5111408;28;20173;-58
2023/01/05 04:11:39;;;;;;;6.00;5.90;;;12.00;50.20;;;;;;5092647;28;20186;-58
2023/01/05 04:14:05;;;;;;;6.20;6.10;;;12.00;50.00;;;;;;5093286;28;20167;-58
2023/01/05 04:16:30;;;;;;;6.23;6.13;;;12.10;49.50;;;;;;5093461;28;20210;-58
2023/01/05 04:18:56;;;;;;;6.30;6.20;;;12.10;49.70;;;;;;5093057;28;20174;-58
2023/01/05 04:21:21;;;;;;;5.77;5.67;;;12.20;49.50;;;;;;5093182;28;20182;-58
2023/01/05 04:23:47;;;;;;;6.87;6.67;;;12.20;48.70;;;;;;5093690;28;20174;-58
2023/01/05 04:26:13;;;;;;;6.43;6.23;;;12.30;48.80;;;;;;5093328;28;20185;-58
2023/01/05 04:28:38;;;;;;;6.13;6.03;;;12.30;48.00;;;;;;5092673;28;20182;-58
2023/01/05 04:31:04;;;;;;;6.60;6.50;;;12.30;48.00;;;;;;5092985;28;20201;-58
2023/01/05 04:33:30;;;;;;;7.20;7.00;;;12.30;47.90;;;;;;5092570;28;20197;-58
2023/01/05 04:35:55;;;;;;;7.00;6.80;;;12.30;47.80;;;;;;5092618;28;20518;-58
2023/01/05 04:38:21;;;;;;;6.33;6.23;;;12.30;48.20;;;;;;5093067;28;20174;-58
2023/01/05 04:40:48;;;;;;;6.90;6.70;;;12.40;48.20;;;;;;5092501;28;20170;-58
2023/01/05 04:43:13;;;;;;;6.60;6.50;;;12.40;48.00;;;;;;5092377;28;20221;-58
2023/01/05 04:45:39;;;;;;;7.13;6.93;;;12.50;48.40;;;;;;5093301;28;20443;-58
2023/01/05 04:48:05;;;;;;;6.93;6.73;;;12.60;47.60;;;;;;5092903;28;20519;-58
2023/01/05 04:50:30;;;;;;;6.33;6.23;;;12.60;46.70;;;;;;5093033;28;20170;-58
2023/01/05 04:52:56;;;;;;;6.63;6.53;;;12.60;47.20;;;;;;5092816;28;20855;-58
2023/01/05 04:55:22;;;;;;;7.30;7.10;;;12.70;46.60;;;;;;5092780;28;20204;-58
2023/01/05 04:57:47;;;;;;;7.33;7.13;;;12.80;46.60;;;;;;5092605;28;20257;-58
2023/01/05 05:00:13;;;;;;;6.93;6.73;;;12.80;46.00;;;;;;5093603;28;20597;-58
2023/01/05 05:02:39;;;;;;;7.50;7.30;;;12.80;46.10;;;;;;5092932;28;20185;-58
2023/01/05 05:05:05;;;;;;;8.30;8.10;;;12.70;46.30;;;;;;5093128;28;20408;-58
2023/01/05 05:07:30;;;;;;;7.37;7.17;;;12.60;47.10;;;;;;5093616;28;20177;-58
2023/01/05 05:09:56;;;;;;;7.53;7.33;;;12.70;47.10;;;;;;5093341;28;20403;-58
2023/01/05 05:12:21;;;;;;;7.50;7.30;;;12.70;47.00;;;;;;5092855;28;20205;-58
2023/01/05 05:14:47;;;;;;;7.87;7.67;;;12.70;46.60;;;;;;5094176;28;20269;-58
2023/01/05 05:17:14;;;;;;;7.70;7.50;;;12.80;46.60;;;;;;5112115;28;20170;-58
2023/01/05 05:19:39;;;;;;;8.20;8.00;;;12.80;46.00;;;;;;5093625;28;20177;-57
2023/01/05 05:22:05;;;;;;;7.83;7.63;;;12.70;46.50;;;;;;5093806;28;20776;-57
2023/01/05 05:24:31;;;;;;;8.00;7.80;;;12.70;47.00;;;;;;5093802;28;20181;-57
2023/01/05 05:26:56;;;;;;;7.87;7.67;;;12.70;47.50;;;;;;5094556;28;20178;-57
2023/01/05 05:29:23;;;;;;;7.70;7.50;;;12.90;47.70;;;;;;5094423;28;20546;-59
2023/01/05 05:31:49;;;;;;;7.57;7.37;;;13.10;46.70;;;;;;5093877;28;20206;-59
2023/01/05 05:34:15;;;;;;;7.97;7.77;;;13.20;45.70;;;;;;5094162;28;20461;-57
2023/01/05 05:36:40;;;;;;;7.83;7.63;;;13.20;46.50;;;;;;5094129;28;20498;-57
2023/01/05 05:39:06;;;;;;;7.33;7.13;;;13.20;46.40;;;;;;5093890;28;20181;-58
2023/01/05 05:41:32;;;;;;;7.43;7.23;;;13.30;46.40;;;;;;5093842;28;20660;-58
2023/01/05 05:43:59;;;;;;;7.20;7.00;;;13.30;46.20;;;;;;5094134;28;20198;-58
2023/01/05 05:46:27;;;;;;;7.50;7.30;;;13.00;47.40;;;;;;5094296;28;20177;-59
2023/01/05 05:48:54;;;;;;;7.47;7.27;;;13.10;47.00;;;;;;5093853;28;20466;-61
2023/01/05 05:51:20;;;;;;;7.33;7.13;;;13.10;47.40;;;;;;5094243;28;20452;-61
2023/01/05 05:53:45;;;;;;;6.40;6.30;;;13.10;48.10;;;;;;5094354;28;20460;-58
2023/01/05 05:56:11;;;;;;;7.17;6.97;;;12.90;49.20;;;;;;5094141;28;20839;-58
2023/01/05 05:58:36;;;;;;;6.70;6.50;;;12.70;50.60;;;;;;5093752;28;20198;-58
2023/01/05 06:01:02;;;;;;;6.70;6.57;;;12.70;51.00;;;;;;5091928;28;20185;-58
2023/01/05 06:03:28;;;;;;;7.23;6.93;;;12.80;50.40;;;;;;5109364;28;20182;-59
2023/01/05 06:05:53;;;;;;;7.47;7.27;;;12.80;49.80;;;;;;5094091;28;20230;-59
2023/01/05 06:08:20;;;;;;;7.77;7.57;;;12.80;49.20;;;;;;5093997;28;20703;-59
2023/01/05 06:10:48;;;;;;;7.20;7.00;;;12.80;49.40;;;;;;5094029;28;20248;-59
2023/01/05 06:13:13;;;;;;;7.43;7.23;;;12.70;49.60;;;;;;5093987;28;20816;-59
2023/01/05 06:15:39;;;;;;;7.37;7.17;;;12.60;51.50;;;;;;5094011;28;20424;-59
2023/01/05 06:18:05;;;;;;;8.17;7.97;;;12.50;51.60;;;;;;5094041;28;20178;-58
2023/01/05 06:20:30;;;;;;;7.90;7.70;;;12.50;51.40;;;;;;5094334;28;20182;-59
2023/01/05 06:22:56;;;;;;;7.10;6.90;;;12.50;51.20;;;;;;5097539;28;20678;-58
2023/01/05 06:25:21;;;;;;;6.90;6.70;;;12.40;51.60;;;;;;5098352;28;20207;-59
2023/01/05 06:27:47;;;;;;;7.20;7.00;;;12.30;53.40;;;;;;5097984;28;20231;-59
2023/01/05 06:30:13;;;;;;;6.60;6.40;;;12.20;52.30;;;;;;5098143;28;20173;-58
2023/01/05 06:32:39;;;;;;;6.40;6.20;;;12.20;52.30;;;;;;5097804;28;20293;-58
2023/01/05 06:35:05;;;;;;;7.20;7.00;;;12.10;53.20;;;;;;5098188;28;20494;-58
2023/01/05 06:37:30;;;;;;;6.83;6.53;;;12.00;53.10;;;;;;5099390;28;20209;-58
2023/01/05 06:39:56;;;;;;;7.10;6.80;;;11.80;54.00;;;;;;5097733;28;20851;-59
2023/01/05 06:42:22;;;;;;;6.00;5.90;;;11.80;55.10;;;;;;5097765;28;20182;-58
2023/01/05 06:44:47;;;;;;;6.27;6.07;;;11.80;55.60;;;;;;5097678;28;20189;-59
2023/01/05 06:47:13;;;;;;;6.50;6.40;;;11.70;56.10;;;;;;5097640;28;20182;-58
2023/01/05 06:49:39;;;;;;;6.67;6.47;;;11.80;56.60;;;;;;5115964;28;20539;-57
2023/01/05 06:52:04;;;;;;;6.70;6.50;;;11.90;56.00;;;;;;5097466;28;20567;-57
2023/01/05 06:54:30;;;;;;;6.37;6.27;;;12.10;54.50;;;;;;5097138;28;20178;-57
2023/01/05 06:56:55;;;;;;;6.83;6.63;;;12.20;53.30;;;;;;5097439;28;20210;-57
2023/01/05 06:59:21;;;;;;;7.10;6.80;;;12.30;53.50;;;;;;5097490;28;20605;-57
2023/01/05 07:01:47;;;;;;;7.20;7.00;;;12.20;53.30;;;;;;5097317;28;20272;-57
2023/01/05 07:04:12;;;;;;;7.10;6.90;;;12.20;53.30;;;;;;5097138;28;20344;-57
2023/01/05 07:06:38;;;;;;;6.77;6.57;;;12.30;53.40;;;;;;5096682;28;20192;-59
2023/01/05 07:09:03;;;;;;;7.53;7.33;;;12.20;53.30;;;;;;5096786;28;20216;-59
2023/01/05 07:11:29;;;;;;;7.23;7.03;;;12.30;53.40;;;;;;5096732;28;20193;-57
2023/01/05 07:13:55;;;;;;;7.40;7.20;;;12.30;52.90;;;;;;5097062;28;20181;-57
2023/01/05 07:16:20;;;;;;;8.43;7.90;;;12.20;51.50;;;;;;5097135;28;20208;-57
2023/01/05 07:18:46;;;;;;;8.97;8.57;;;12.40;51.60;;;;;;5096946;28;20184;-58
2023/01/05 07:21:12;;;;;;;8.30;8.00;;;12.30;50.40;;;;;;5096823;28;20181;-57
2023/01/05 07:23:38;;;;;;;8.33;7.83;;;12.40;49.50;;;;;;5096925;28;20184;-57
2023/01/05 07:26:05;;;;;;;7.90;7.63;;;12.40;48.70;;;;;;5096889;28;20796;-57
2023/01/05 07:28:31;;;;;;;8.17;7.77;;;12.30;49.00;;;;;;5076475;28;20178;-58
2023/01/05 07:30:56;;;;;;;8.40;8.10;;;12.30;48.60;;;;;;5078888;28;20458;-58
2023/01/05 07:33:22;;;;;;;8.80;8.50;;;12.20;48.10;;;;;;5094005;28;20178;-58
2023/01/05 07:35:47;;;;;;;9.03;8.47;;;12.20;46.30;;;;;;5096506;28;20170;-58
2023/01/05 07:38:13;;;;;;;8.70;8.50;;;12.20;47.60;;;;;;5096581;28;20234;-60
2023/01/05 07:40:39;;;;;;;8.33;8.03;;;12.20;46.50;;;;;;5114496;28;20181;-59
2023/01/05 07:43:04;;;;;;;8.90;8.60;;;12.10;46.30;;;;;;5096314;28;20193;-59
2023/01/05 07:45:30;;;;;;;8.97;8.67;;;12.10;46.10;;;;;;5096755;28;20170;-58
2023/01/05 07:47:56;;;;;;;8.63;8.43;;;12.00;46.00;;;;;;5095661;28;20186;-58
2023/01/05 07:50:22;;;;;;;8.03;7.83;;;11.90;46.20;;;;;;5096390;28;20178;-59
2023/01/05 07:52:47;;;;;;;8.87;8.57;;;11.90;46.50;;;;;;5096026;28;20734;-59
2023/01/05 07:55:13;;;;;;;9.23;8.83;;;12.00;46.50;;;;;;5092453;28;20518;-59
2023/01/05 07:57:39;;;;;;;9.17;8.60;;;12.00;45.70;;;;;;5089341;28;20199;-59
2023/01/05 08:00:05;;;;;;;9.77;8.77;;;12.10;45.00;;;;;;5114217;28;20258;-57
2023/01/05 08:02:32;;;;;;;8.90;8.60;;;12.00;44.50;;;;;;5094758;28;20185;-58
2023/01/05 08:04:58;;;;;;;9.20;8.90;;;12.10;44.30;;;;;;5095074;28;20584;-57
2023/01/05 08:07:24;;;;;;;9.00;8.70;;;12.30;43.70;;;;;;5094815;28;20926;-57
2023/01/05 08:13:58;;;;;;;9.13;8.73;;;12.20;43.70;;;;;;5113948;28;20454;-57
2023/01/05 08:15:19;;;;;;;9.83;9.47;;;12.30;43.60;;;;;;5113793;28;20921;-57
2023/01/05 08:17:45;;;;;;;12.73;9.77;;;12.30;43.70;;;;;;5113685;28;20407;-58
2023/01/05 08:20:10;;;;;;;9.40;9.10;;;12.20;43.50;;;;;;5091276;28;20209;-58
2023/01/05 08:22:36;;;;;;;9.60;8.97;;;12.10;43.40;;;;;;5095301;28;20221;-58
2023/01/05 08:25:02;;;;;;;9.07;8.77;;;12.10;43.40;;;;;;5094697;28;20238;-57
2023/01/05 08:27:28;;;;;;;9.53;9.13;;;12.20;43.50;;;;;;5095855;28;20280;-58
2023/01/05 08:29:54;;;;;;;9.40;9.10;;;12.20;42.80;;;;;;5095910;28;20454;-59
2023/01/05 08:32:19;;;;;;;9.17;8.77;;;12.30;42.80;;;;;;5078624;28;20497;-56
2023/01/05 08:34:45;;;;;;;9.37;9.07;;;12.30;42.80;;;;;;5095906;28;20196;-58
2023/01/05 08:37:11;;;;;;;9.70;9.10;;;12.40;42.60;;;;;;5095874;28;20201;-60
2023/01/05 08:39:36;;;;;;;10.70;10.07;;;12.30;43.10;;;;;;5095661;28;20622;-60
2023/01/05 08:42:02;;;;;;;9.53;9.23;;;12.20;43.10;;;;;;5095731;28;20220;-60
2023/01/05 08:44:28;;;;;;;10.67;9.90;;;12.20;42.80;;;;;;5095521;28;20247;-60
2023/01/05 08:46:53;;;;;;;9.27;8.77;;;12.30;42.00;;;;;;5095965;28;20197;-60
2023/01/05 08:49:19;;;;;;;8.83;8.43;;;12.20;43.50;;;;;;5095582;28;20170;-60
2023/01/05 08:51:45;;;;;;;8.90;8.60;;;12.10;43.40;;;;;;5095447;28;20654;-60
2023/01/05 08:54:11;;;;;;;9.17;8.87;;;12.00;43.40;;;;;;5095443;28;20182;-60
2023/01/05 08:56:37;;;;;;;9.20;8.90;;;12.10;43.40;;;;;;5095467;28;20541;-60
2023/01/05 08:59:02;;;;;;;9.03;8.67;;;12.20;42.00;;;;;;5095203;28;20415;-60
2023/01/05 09:01:29;;;;;;;8.80;8.50;;;12.10;41.80;;;;;;5095190;28;20178;-60
2023/01/05 09:03:55;;;;;;;9.30;8.60;;;12.10;42.00;;;;;;5095129;28;20553;-60
2023/01/05 09:06:21;;;;;;;8.70;8.40;;;12.10;42.80;;;;;;5094910;28;20431;-60
2023/01/05 09:08:47;;;;;;;9.00;8.60;;;12.20;41.80;;;;;;5094842;28;20184;-60
2023/01/05 09:11:22;;;;;;;9.53;9.00;;;12.10;41.60;;;;;;5094644;28;20221;-60
2023/01/05 09:13:50;;;;;;;10.23;9.57;;;12.20;41.80;;;;;;5094960;28;20502;-60
2023/01/05 09:16:18;;;;;;;9.07;8.43;;;12.00;40.20;;;;;;5094984;28;20416;-60
2023/01/05 09:18:44;;;;;;;9.33;8.93;;;12.10;40.10;;;;;;5094782;28;20412;-61
2023/01/05 09:21:11;;;;;;;9.67;8.77;;;12.00;39.90;;;;;;5094409;28;20791;-61
2023/01/05 09:23:37;;;;;;;9.97;9.40;;;11.90;40.00;;;;;;5094707;28;20416;-60
2023/01/05 09:26:08;;;;;;;8.90;8.60;;;11.90;39.30;;;;;;5094973;28;20777;-61
2023/01/05 09:28:35;;;;;;;8.77;8.20;;;12.00;38.60;;;;;;5113233;28;20510;-61
2023/01/05 09:31:08;;;;;;;9.63;8.93;;;12.10;37.70;;;;;;5094729;28;20415;-61
2023/01/05 09:33:34;;;;;;;10.63;9.63;;;12.00;37.30;;;;;;5112114;28;20415;-60
2023/01/05 09:36:00;;;;;;;10.40;9.63;;;12.00;37.60;;;;;;5094483;28;21013;-61
2023/01/05 09:38:26;;;;;;;8.90;8.50;;;12.20;35.80;;;;;;5093559;28;20536;-60
2023/01/05 09:40:54;;;;;;;10.40;9.40;;;12.10;36.90;;;;;;5094518;28;20186;-60
2023/01/05 09:43:28;;;;;;;8.43;8.10;;;12.20;35.80;;;;;;5094323;28;20197;-60
2023/01/05 09:45:55;;;;;;;10.17;9.47;;;12.00;36.40;;;;;;5094540;28;20408;-60
2023/01/05 09:48:22;;;;;;;10.23;9.57;;;12.00;36.30;;;;;;5094467;28;20416;-58
2023/01/05 09:50:49;;;;;;;11.37;9.40;;;12.00;36.50;;;;;;5094501;28;20407;-58
2023/01/05 09:53:24;;;;;;;10.10;9.50;;;11.90;36.40;;;;;;5094220;28;20471;-58
2023/01/05 09:55:51;;;;;;;11.10;9.57;;;11.80;35.70;;;;;;5093935;28;20414;-58
2023/01/05 09:58:22;;;;;;;11.30;10.27;;;11.90;35.40;;;;;;5094367;28;20422;-58
2023/01/05 10:01:04;;;;;;;9.80;9.30;;;12.00;35.70;;;;;;5094318;28;20408;-58
2023/01/05 10:03:31;;;;;;;11.10;10.40;;;11.90;35.70;;;;;;5094233;28;20420;-58
2023/01/05 10:05:57;;;;;;;10.23;9.47;;;12.00;36.20;;;;;;5094241;28;20432;-58
2023/01/05 10:08:39;;;;;;;10.53;9.83;;;12.00;35.10;;;;;;5094193;28;20420;-58
2023/01/05 10:14:16;;;;;;;9.87;9.37;;;12.20;34.80;;;;;;5112760;28;20464;-58
2023/01/05 10:16:44;;;;;;;10.20;9.30;;;12.30;33.60;;;;;;5094168;28;20407;-58
2023/01/05 10:19:13;;;;;;;9.73;9.00;;;12.20;35.30;;;;;;5094171;28;20443;-58
2023/01/05 10:21:45;;;;;;;9.97;9.17;;;12.20;35.10;;;;;;5093949;28;20500;-58
2023/01/05 10:24:13;;;;;;;9.63;8.90;;;12.30;34.30;;;;;;5094082;28;20423;-58
2023/01/05 10:26:50;;;;;;;9.13;8.73;;;12.20;33.70;;;;;;5094336;28;20419;-58
2023/01/05 10:29:37;;;;;;;9.20;8.80;;;12.30;33.50;;;;;;5094047;28;20415;-58
2023/01/05 10:32:29;;;;;;;9.23;8.80;;;12.40;33.60;;;;;;5093925;28;20760;-58
2023/01/05 10:34:57;;;;;;;10.13;9.27;;;12.50;32.90;;;;;;5089284;28;20419;-59
2023/01/05 10:37:35;;;;;;;9.63;9.00;;;12.40;33.70;;;;;;5093979;28;20573;-60
2023/01/05 10:40:10;;;;;;;8.97;8.57;;;12.20;33.40;;;;;;5094064;28;20458;-60
2023/01/05 10:42:44;;;;;;;9.93;8.93;;;12.10;34.20;;;;;;5093802;28;20792;-60
2023/01/05 10:45:16;;;;;;;22.73;8.43;;;12.20;33.40;;;;;;5093964;28;20435;-60
2023/01/05 10:47:44;;;;;;;9.50;8.87;;;12.20;33.40;;;;;;5093800;28;20461;-60
2023/01/05 10:50:36;;;;;;;9.07;8.57;;;12.10;33.10;;;;;;5093944;28;20469;-60
2023/01/05 10:53:08;;;;;;;9.40;8.50;;;12.10;33.30;;;;;;5093439;28;20463;-60
2023/01/05 10:55:43;;;;;;;9.93;9.03;;;12.20;33.40;;;;;;5093856;28;20774;-60
2023/01/05 10:58:27;;;;;;;9.40;8.50;;;12.20;32.50;;;;;;5093760;28;20414;-60
2023/01/05 11:00:56;;;;;;;9.20;8.50;;;12.30;33.20;;;;;;5093711;28;20438;-60
2023/01/05 11:03:28;;;;;;;9.17;8.37;;;12.50;32.30;;;;;;5093485;28;20710;-60
2023/01/05 11:05:55;;;;;;;8.90;8.20;;;12.50;32.40;;;;;;5093703;28;20460;-60
2023/01/05 11:08:24;;;;;;;9.43;8.93;;;12.60;32.30;;;;;;5096252;28;20423;-60
2023/01/05 11:10:55;;;;;;;9.67;8.90;;;12.50;31.90;;;;;;5097435;28;20970;-60
2023/01/05 11:13:31;;;;;;;8.93;8.63;;;12.50;31.30;;;;;;5097101;28;20407;-61
2023/01/05 11:16:11;;;;;;;9.30;8.50;;;12.40;31.30;;;;;;5097514;28;20449;-61
2023/01/05 11:18:57;;;;;;;8.20;7.90;;;12.40;32.10;;;;;;5097250;28;20407;-60
2023/01/05 11:21:24;;;;;;;9.20;8.63;;;12.40;32.20;;;;;;5097122;28;20457;-61
2023/01/05 11:23:52;;;;;;;10.37;9.53;;;12.30;32.00;;;;;;5097115;28;20403;-60
2023/01/05 11:26:18;;;;;;;8.83;8.13;;;12.40;32.00;;;;;;5097213;28;20411;-61
2023/01/05 11:29:00;;;;;;;8.30;8.00;;;12.50;31.70;;;;;;5097205;28;20812;-60
2023/01/05 11:31:33;;;;;;;9.17;8.77;;;12.50;31.60;;;;;;5096934;28;20202;-60
2023/01/05 11:34:07;;;;;;;9.00;8.60;;;12.50;31.40;;;;;;5097076;28;20412;-60
2023/01/05 11:36:33;;;;;;;9.70;9.20;;;12.50;31.70;;;;;;5097179;28;20413;-60
2023/01/05 11:38:59;;;;;;;11.50;8.67;;;12.50;31.50;;;;;;5096917;28;20412;-60
2023/01/05 11:41:24;;;;;;;9.30;8.57;;;12.70;30.80;;;;;;5096692;28;20420;-61
2023/01/05 11:43:53;;;;;;;9.73;8.77;;;12.70;30.80;;;;;;5096746;28;20190;-61
2023/01/05 11:46:21;;;;;;;11.17;8.20;;;12.70;30.60;;;;;;5096922;28;20169;-61
2023/01/05 11:48:53;;;;;;;8.23;7.93;;;12.50;30.10;;;;;;5096702;28;20404;-60
2023/01/05 11:51:34;;;;;;;13.03;8.90;;;12.60;30.50;;;;;;5096652;28;20496;-61
2023/01/05 11:53:59;;;;;;;9.87;9.00;;;12.50;30.00;;;;;;5096755;28;20414;-60
2023/01/05 11:56:25;;;;;;;9.57;9.07;;;12.40;30.40;;;;;;5096808;28;20404;-61
2023/01/05 11:58:53;;;;;;;8.63;8.13;;;12.40;30.60;;;;;;5114932;28;20180;-60
2023/01/05 12:01:31;;;;;;;8.97;8.20;;;12.50;30.30;;;;;;5096317;28;20200;-60
2023/01/05 12:04:02;;;;;;;8.67;8.07;;;12.60;30.60;;;;;;5096302;28;20444;-60
2023/01/05 12:07:02;;;;;;;8.60;8.10;;;12.70;29.90;;;;;;5096560;28;20427;-60
2023/01/05 12:09:32;;;;;;;8.60;8.30;;;12.70;29.90;;;;;;5096227;28;20415;-60
2023/01/05 12:12:35;;;;;;;8.90;8.40;;;12.90;30.00;;;;;;5095989;28;21009;-60
2023/01/05 12:15:22;;;;;;;9.67;8.87;;;13.00;29.30;;;;;;5095469;28;20927;-60
2023/01/05 12:18:06;;;;;;;9.43;9.10;;;12.70;30.00;;;;;;5096038;28;20433;-57
2023/01/05 12:20:53;;;;;;;9.80;8.87;;;12.70;30.00;;;;;;5095520;28;20408;-57
2023/01/05 12:23:45;;;;;;;9.97;9.37;;;12.60;30.10;;;;;;5096250;28;20418;-57
2023/01/05 12:26:25;;;;;;;10.33;9.30;;;12.70;29.80;;;;;;5091002;28;20473;-57
2023/01/05 12:29:13;;;;;;;10.67;9.90;;;12.80;30.00;;;;;;5075824;28;20408;-57
2023/01/05 12:31:53;;;;;;;11.83;8.83;;;12.80;29.90;;;;;;5075776;28;20803;-58
2023/01/05 12:34:38;;;;;;;9.00;8.30;;;12.70;30.50;;;;;;5075793;28;20825;-58
2023/01/05 12:37:41;;;;;;;9.40;8.70;;;12.70;30.10;;;;;;5076033;28;20456;-58
2023/01/05 12:40:27;;;;;;;8.60;8.30;;;12.70;31.10;;;;;;5094081;28;20400;-58
2023/01/05 12:43:02;;;;;;;10.50;9.80;;;12.60;30.40;;;;;;5074656;28;20415;-58
2023/01/05 12:45:59;;;;;;;9.00;8.50;;;12.70;30.20;;;;;;5075471;28;20407;-57
2023/01/05 12:48:39;;;;;;;9.97;9.20;;;12.60;30.40;;;;;;5065933;28;20436;-57
2023/01/05 12:51:42;;;;;;;9.63;9.03;;;12.70;30.50;;;;;;5075086;28;20437;-58
2023/01/05 12:54:28;;;;;;;9.47;8.80;;;12.80;30.40;;;;;;5073576;28;20416;-58
2023/01/05 12:56:58;;;;;;;10.50;9.87;;;12.80;30.00;;;;;;5064278;28;20431;-58
2023/01/05 12:59:49;;;;;;;8.50;7.90;;;12.70;30.30;;;;;;5074944;28;20780;-58
2023/01/05 13:02:19;;;;;;;9.33;8.83;;;12.60;31.00;;;;;;5075121;28;20511;-58
2023/01/05 13:04:54;;;;;;;9.37;8.60;;;12.70;30.90;;;;;;5074849;28;20408;-59
2023/01/05 13:07:34;;;;;;;8.37;7.97;;;12.80;30.60;;;;;;5093187;28;20397;-60
2023/01/05 13:10:13;;;;;;;9.40;9.00;;;12.80;30.50;;;;;;5074902;28;20547;-60
2023/01/05 13:12:40;;;;;;;8.97;8.73;;;12.60;30.90;;;;;;5074501;28;20440;-60
2023/01/05 13:15:11;;;;;;;10.23;9.63;;;12.50;31.10;;;;;;5074529;28;20413;-61
2023/01/05 13:17:44;;;;;;;9.13;8.43;;;12.40;31.60;;;;;;5074631;28;20400;-60
2023/01/05 13:20:18;;;;;;;9.80;9.20;;;12.40;31.60;;;;;;5077656;28;20828;-60
2023/01/05 13:22:46;;;;;;;9.67;9.00;;;12.40;31.50;;;;;;5094124;28;20414;-60
2023/01/05 13:25:21;;;;;;;8.20;8.00;;;12.40;32.00;;;;;;5094262;28;20411;-61
2023/01/05 13:27:47;;;;;;;9.40;8.77;;;12.30;32.10;;;;;;5094167;28;20419;-61
2023/01/05 13:30:26;;;;;;;9.83;9.20;;;12.30;32.10;;;;;;5094079;28;20997;-61
2023/01/05 13:32:57;;;;;;;9.03;8.63;;;12.20;32.40;;;;;;5093950;28;20201;-61
2023/01/05 13:35:37;;;;;;;9.23;8.63;;;12.20;32.70;;;;;;5095028;28;20458;-61